Time;durP1;ratioP1;P1;durP2;ratioP2;P2;SDS_P1;SDS_P2;PMS_P1;PMS_P2;Temp;Humidity;BMP_temperature;BMP_pressure;BME280_temperature;BME280_humidity;BME280_pressure;Samples;Min_cycle;Max_cycle;Signal;HPM_P1;HPM_P2
2023/11/18 00:01:32;;;;;;;6.78;3.92;;;8.20;99.90;;;;;;5050633;28;20378;-89
2023/11/18 00:03:58;;;;;;;6.53;4.00;;;8.20;99.90;;;;;;5049144;28;20071;-90
2023/11/18 00:06:26;;;;;;;7.18;4.03;;;8.20;99.90;;;;;;5051265;28;20029;-88
2023/11/18 00:08:54;;;;;;;5.80;3.70;;;8.20;99.90;;;;;;5050709;28;20029;-82
2023/11/18 00:11:19;;;;;;;6.13;3.88;;;8.20;99.90;;;;;;5040176;28;20053;-83
2023/11/18 00:13:45;;;;;;;7.25;3.85;;;8.10;99.90;;;;;;5040964;28;20480;-84
2023/11/18 00:16:15;;;;;;;8.13;4.78;;;8.20;99.90;;;;;;5045150;28;20025;-85
2023/11/18 00:18:41;;;;;;;6.18;4.07;;;8.20;99.90;;;;;;5041997;28;20033;-84
2023/11/18 00:21:07;;;;;;;7.45;4.28;;;8.20;99.90;;;;;;5042421;28;20029;-85
2023/11/18 00:23:36;;;;;;;7.68;4.63;;;8.20;99.90;;;;;;5043001;28;20223;-83
2023/11/18 00:26:02;;;;;;;6.80;4.20;;;8.20;99.90;;;;;;5041564;28;20032;-83
2023/11/18 00:28:28;;;;;;;7.22;3.97;;;8.20;99.90;;;;;;5044976;28;20025;-84
2023/11/18 00:30:53;;;;;;;7.75;4.35;;;8.20;99.90;;;;;;5043603;28;20529;-84
2023/11/18 00:33:19;;;;;;;6.85;4.43;;;8.20;99.90;;;;;;5045417;28;20025;-84
2023/11/18 00:35:45;;;;;;;7.15;3.95;;;8.20;99.90;;;;;;5064557;28;20021;-83
2023/11/18 00:38:11;;;;;;;6.53;4.35;;;8.20;99.90;;;;;;5046055;28;20104;-83
2023/11/18 00:40:36;;;;;;;7.75;4.10;;;8.20;99.90;;;;;;5044986;28;20499;-84
2023/11/18 00:43:03;;;;;;;6.93;4.63;;;8.30;99.90;;;;;;5056398;28;20094;-83
2023/11/18 00:45:28;;;;;;;8.05;4.50;;;8.30;99.90;;;;;;5056911;28;20119;-84
2023/11/18 00:47:54;;;;;;;7.28;4.45;;;8.20;99.90;;;;;;5074224;28;20056;-83
2023/11/18 00:50:20;;;;;;;7.90;4.65;;;8.20;99.90;;;;;;5056386;28;20029;-83
2023/11/18 00:52:49;;;;;;;6.18;4.13;;;8.20;99.90;;;;;;5055979;28;20035;-83
2023/11/18 00:55:17;;;;;;;7.22;4.15;;;8.20;99.90;;;;;;5056490;28;20032;-82
2023/11/18 00:57:44;;;;;;;8.30;4.38;;;8.20;99.90;;;;;;5055730;28;20032;-84
2023/11/18 01:00:16;;;;;;;7.80;4.60;;;8.30;99.90;;;;;;5056659;28;20036;-82
2023/11/18 01:02:43;;;;;;;7.20;4.63;;;8.20;99.90;;;;;;5056023;28;20029;-83
2023/11/18 01:05:09;;;;;;;9.52;4.88;;;8.20;99.90;;;;;;5073777;28;20028;-83
2023/11/18 01:07:35;;;;;;;7.38;4.82;;;8.20;99.90;;;;;;5055873;28;20107;-82
2023/11/18 01:10:01;;;;;;;8.73;4.85;;;8.20;99.90;;;;;;5056459;28;20025;-84
2023/11/18 01:12:27;;;;;;;8.45;5.10;;;8.20;99.90;;;;;;5056379;28;20027;-84
2023/11/18 01:14:52;;;;;;;6.07;4.53;;;8.20;99.90;;;;;;5055785;28;20031;-84
2023/11/18 01:17:18;;;;;;;11.02;5.38;;;8.20;99.90;;;;;;5056208;28;20039;-84
2023/11/18 01:19:43;;;;;;;7.60;4.80;;;8.20;99.90;;;;;;5055655;28;20070;-84
2023/11/18 01:22:11;;;;;;;9.18;4.75;;;8.20;99.90;;;;;;5074048;28;20035;-84
2023/11/18 01:24:36;;;;;;;9.20;5.53;;;8.20;99.90;;;;;;5055402;28;20028;-83
2023/11/18 01:27:02;;;;;;;8.73;5.15;;;8.20;99.90;;;;;;5056090;28;20024;-84
2023/11/18 01:29:28;;;;;;;9.20;5.05;;;8.30;99.90;;;;;;5056299;28;20141;-84
2023/11/18 01:31:55;;;;;;;11.13;5.65;;;8.30;99.90;;;;;;5056175;28;20043;-84
2023/11/18 01:34:21;;;;;;;9.85;5.25;;;8.20;99.90;;;;;;5056494;28;20132;-84
2023/11/18 01:36:49;;;;;;;8.65;4.93;;;8.10;99.90;;;;;;5056044;28;20102;-84
2023/11/18 01:39:17;;;;;;;8.18;4.70;;;8.20;99.90;;;;;;5055925;28;20025;-84
2023/11/18 01:41:43;;;;;;;9.25;5.15;;;8.20;99.90;;;;;;5055722;28;20025;-82
2023/11/18 01:44:08;;;;;;;9.10;5.28;;;8.10;99.90;;;;;;5058079;28;20028;-83
2023/11/18 01:46:35;;;;;;;10.10;5.35;;;8.10;99.90;;;;;;5060306;28;20380;-83
2023/11/18 01:49:03;;;;;;;9.43;5.07;;;8.10;99.90;;;;;;5060392;28;20078;-84
2023/11/18 01:51:30;;;;;;;10.95;5.47;;;8.10;99.90;;;;;;5060187;28;20060;-83
2023/11/18 01:53:57;;;;;;;10.45;6.00;;;8.00;99.90;;;;;;5059420;28;20029;-83
2023/11/18 01:56:25;;;;;;;11.93;5.60;;;8.00;99.90;;;;;;5077788;28;20112;-83
2023/11/18 01:58:51;;;;;;;8.95;5.28;;;8.00;99.90;;;;;;5077266;28;20436;-82
2023/11/18 02:01:17;;;;;;;10.57;5.20;;;8.00;99.90;;;;;;5060075;28;20032;-83
2023/11/18 02:03:43;;;;;;;8.73;4.95;;;8.00;99.90;;;;;;5076990;28;20027;-83
2023/11/18 02:06:10;;;;;;;10.52;5.32;;;8.00;99.90;;;;;;5060097;28;20033;-83
2023/11/18 02:08:37;;;;;;;9.10;5.38;;;8.00;99.90;;;;;;5077388;28;20055;-83
2023/11/18 02:11:17;;;;;;;8.70;5.47;;;7.90;99.90;;;;;;5059757;28;20032;-82
2023/11/18 02:13:47;;;;;;;10.38;5.68;;;7.90;99.90;;;;;;5059239;28;20032;-83
2023/11/18 02:16:14;;;;;;;11.00;5.45;;;7.90;99.90;;;;;;5077496;28;20028;-83
2023/11/18 02:18:41;;;;;;;7.72;4.65;;;8.00;99.90;;;;;;5059104;28;20028;-82
2023/11/18 02:21:09;;;;;;;8.60;4.82;;;8.00;99.90;;;;;;5077723;28;20160;-83
2023/11/18 02:23:37;;;;;;;10.90;5.63;;;8.00;99.90;;;;;;5060174;28;20089;-82
2023/11/18 02:26:03;;;;;;;10.05;5.10;;;8.00;99.90;;;;;;5059122;28;20064;-83
2023/11/18 02:28:29;;;;;;;7.95;4.70;;;7.90;99.90;;;;;;5076979;28;20037;-83
2023/11/18 02:31:00;;;;;;;9.15;5.05;;;7.90;99.90;;;;;;5059350;28;20032;-82
2023/11/18 02:33:39;;;;;;;9.63;5.40;;;8.00;99.90;;;;;;5058672;28;20048;-82
2023/11/18 02:36:14;;;;;;;10.15;5.65;;;7.90;99.90;;;;;;5058909;28;20028;-82
2023/11/18 02:38:46;;;;;;;10.13;5.47;;;7.90;99.90;;;;;;5058784;28;20036;-82
2023/11/18 02:41:13;;;;;;;11.18;5.22;;;7.90;99.90;;;;;;5077472;28;20021;-83
2023/11/18 02:43:40;;;;;;;8.23;5.15;;;7.90;99.90;;;;;;5059188;28;20028;-81
2023/11/18 02:46:07;;;;;;;9.43;5.15;;;7.90;99.90;;;;;;5059336;28;20052;-83
2023/11/18 02:48:35;;;;;;;8.65;5.00;;;7.90;99.90;;;;;;5058934;28;20063;-85
2023/11/18 02:51:01;;;;;;;10.30;5.60;;;7.90;99.90;;;;;;5058319;28;20425;-84
2023/11/18 02:53:27;;;;;;;7.68;4.70;;;7.90;99.90;;;;;;5076419;28;20028;-84
2023/11/18 02:55:53;;;;;;;9.82;5.53;;;7.90;99.90;;;;;;5057223;28;20032;-84
2023/11/18 02:58:20;;;;;;;9.65;5.28;;;7.90;99.90;;;;;;5076665;28;20039;-84
2023/11/18 03:00:46;;;;;;;10.80;4.88;;;7.90;99.90;;;;;;5058713;28;20032;-84
2023/11/18 03:03:11;;;;;;;9.20;5.10;;;8.00;99.90;;;;;;5058616;28;20409;-84
2023/11/18 03:05:37;;;;;;;11.57;5.53;;;8.00;99.90;;;;;;5058878;28;20066;-85
2023/11/18 03:08:06;;;;;;;9.93;5.15;;;7.90;99.90;;;;;;5058288;28;20022;-85
2023/11/18 03:10:34;;;;;;;9.00;5.30;;;7.90;99.90;;;;;;5075950;28;20085;-84
2023/11/18 03:13:00;;;;;;;8.88;5.40;;;7.90;99.90;;;;;;5057479;28;20032;-83
2023/11/18 03:15:27;;;;;;;7.13;5.05;;;8.00;99.90;;;;;;5076370;28;20023;-83
2023/11/18 03:17:52;;;;;;;9.75;5.93;;;7.90;99.90;;;;;;5058092;28;20457;-84
2023/11/18 03:20:19;;;;;;;11.65;4.70;;;7.90;99.90;;;;;;5058316;28;20031;-84
2023/11/18 03:22:45;;;;;;;9.02;5.15;;;8.00;99.90;;;;;;5057471;28;20029;-83
2023/11/18 03:25:12;;;;;;;10.57;5.28;;;8.00;99.90;;;;;;5058135;28;20031;-84
2023/11/18 03:27:38;;;;;;;8.85;5.43;;;8.00;99.90;;;;;;5058488;28;20105;-84
2023/11/18 03:30:08;;;;;;;9.15;5.53;;;8.00;99.90;;;;;;5057925;28;20035;-84
2023/11/18 03:32:39;;;;;;;8.93;5.10;;;8.00;99.90;;;;;;5058536;28;20570;-84
2023/11/18 03:35:09;;;;;;;8.32;5.55;;;8.00;99.90;;;;;;5057427;28;20048;-84
2023/11/18 03:37:38;;;;;;;7.88;5.40;;;8.00;99.90;;;;;;5075676;28;20020;-84
2023/11/18 03:40:07;;;;;;;10.27;5.70;;;8.00;99.90;;;;;;5057856;28;20044;-84
2023/11/18 03:42:33;;;;;;;12.25;6.00;;;8.00;99.90;;;;;;5058085;28;20074;-83
2023/11/18 03:44:59;;;;;;;12.80;5.70;;;8.00;99.90;;;;;;5058100;28;20036;-84
2023/11/18 03:47:24;;;;;;;11.43;5.65;;;8.00;99.90;;;;;;5058089;28;20029;-84
2023/11/18 03:49:50;;;;;;;9.90;6.00;;;8.00;99.90;;;;;;5057588;28;20047;-84
2023/11/18 03:52:16;;;;;;;18.00;7.25;;;8.10;99.90;;;;;;5057719;28;20445;-83
2023/11/18 03:54:42;;;;;;;11.93;6.63;;;8.00;99.90;;;;;;5075545;28;20071;-84
2023/11/18 03:57:07;;;;;;;12.57;5.80;;;8.00;99.90;;;;;;5075034;28;20029;-84
2023/11/18 03:59:33;;;;;;;10.18;5.80;;;8.00;99.90;;;;;;5057686;28;20154;-84
2023/11/18 04:01:59;;;;;;;15.20;5.72;;;8.00;99.90;;;;;;5074883;28;20076;-84
2023/11/18 04:04:24;;;;;;;14.10;6.47;;;8.10;99.90;;;;;;5075184;28;20031;-85
2023/11/18 04:06:50;;;;;;;14.93;6.97;;;8.00;99.90;;;;;;5074222;28;20029;-84
2023/11/18 04:09:16;;;;;;;12.32;6.05;;;8.00;99.90;;;;;;5075044;28;20107;-84
2023/11/18 04:11:44;;;;;;;11.57;6.70;;;8.00;99.90;;;;;;5057283;28;20083;-84
2023/11/18 04:14:10;;;;;;;10.73;5.60;;;8.00;99.90;;;;;;5057412;28;20039;-83
2023/11/18 04:16:37;;;;;;;11.48;6.75;;;8.10;99.90;;;;;;5057421;28;20453;-83
2023/11/18 04:19:05;;;;;;;14.13;6.82;;;8.10;99.90;;;;;;5074587;28;20025;-83
2023/11/18 04:21:30;;;;;;;17.90;7.50;;;8.10;99.90;;;;;;5057225;28;20032;-82
2023/11/18 04:23:56;;;;;;;16.00;8.00;;;8.00;99.90;;;;;;5056024;28;20024;-83
2023/11/18 04:26:22;;;;;;;14.88;7.68;;;7.90;99.90;;;;;;5057132;28;20481;-83
2023/11/18 04:28:47;;;;;;;14.45;7.43;;;8.00;99.90;;;;;;5056647;28;20070;-82
2023/11/18 04:31:13;;;;;;;29.65;14.15;;;8.00;99.90;;;;;;5074316;28;20033;-82
2023/11/18 04:33:40;;;;;;;19.30;9.55;;;8.00;99.90;;;;;;5074481;28;20492;-82
2023/11/18 04:36:09;;;;;;;15.68;8.65;;;7.90;99.90;;;;;;5073889;28;20066;-82
2023/11/18 04:38:35;;;;;;;21.17;9.52;;;7.90;99.90;;;;;;5057045;28;20028;-82
2023/11/18 04:41:03;;;;;;;36.80;17.15;;;7.90;99.90;;;;;;5074211;28;20098;-82
2023/11/18 04:43:29;;;;;;;17.52;9.68;;;7.80;99.90;;;;;;5056961;28;20110;-83
2023/11/18 04:45:55;;;;;;;17.00;8.23;;;7.80;99.90;;;;;;5056216;28;20128;-83
2023/11/18 04:48:21;;;;;;;15.15;8.20;;;7.80;99.90;;;;;;5056656;28;20056;-83
2023/11/18 04:50:47;;;;;;;15.02;8.13;;;7.80;99.90;;;;;;5056398;28;20040;-82
2023/11/18 04:53:13;;;;;;;19.02;8.23;;;7.80;99.90;;;;;;5056852;28;20024;-83
2023/11/18 04:55:39;;;;;;;18.67;8.18;;;7.70;99.90;;;;;;5056575;28;20119;-84
2023/11/18 04:58:05;;;;;;;15.23;8.32;;;7.60;99.90;;;;;;5056141;28;20384;-84
2023/11/18 05:00:32;;;;;;;16.77;8.55;;;7.70;99.90;;;;;;5056517;28;20050;-84
2023/11/18 05:02:58;;;;;;;14.48;7.70;;;7.70;99.90;;;;;;5056335;28;20028;-84
2023/11/18 05:05:24;;;;;;;15.55;7.22;;;7.70;99.90;;;;;;5056602;28;20035;-84
2023/11/18 05:07:49;;;;;;;13.93;7.38;;;7.60;99.90;;;;;;5073631;28;20028;-84
2023/11/18 05:10:15;;;;;;;17.88;7.88;;;7.70;99.90;;;;;;5056371;28;20089;-84
2023/11/18 05:12:43;;;;;;;15.88;8.75;;;7.70;99.90;;;;;;5056540;28;20030;-84
2023/11/18 05:15:09;;;;;;;16.60;7.63;;;7.60;99.90;;;;;;5055852;28;20090;-84
2023/11/18 05:17:38;;;;;;;19.60;7.75;;;7.60;99.90;;;;;;5055827;28;20025;-84
2023/11/18 05:20:04;;;;;;;19.83;8.07;;;7.50;99.90;;;;;;5055618;28;20024;-84
2023/11/18 05:22:30;;;;;;;14.15;7.57;;;7.50;99.90;;;;;;5055888;28;20060;-83
2023/11/18 05:24:57;;;;;;;17.42;7.40;;;7.50;99.90;;;;;;5055763;28;20067;-84
2023/11/18 05:27:23;;;;;;;16.70;7.60;;;7.50;99.90;;;;;;5074002;28;20491;-84
2023/11/18 05:29:54;;;;;;;13.77;7.20;;;7.50;99.90;;;;;;5056154;28;20107;-84
2023/11/18 05:32:20;;;;;;;15.45;7.78;;;7.60;99.90;;;;;;5074048;28;20039;-84
2023/11/18 05:34:46;;;;;;;13.88;7.20;;;7.60;99.90;;;;;;5073868;28;20486;-84
2023/11/18 05:37:12;;;;;;;16.20;7.20;;;7.70;99.90;;;;;;5055504;28;20170;-84
2023/11/18 05:39:42;;;;;;;13.75;6.60;;;7.60;99.90;;;;;;5056174;28;20461;-84
2023/11/18 05:42:10;;;;;;;16.02;7.40;;;7.60;99.90;;;;;;5055345;28;20032;-83
2023/11/18 05:44:37;;;;;;;15.27;6.97;;;7.60;99.90;;;;;;5056029;28;20024;-83
2023/11/18 05:47:04;;;;;;;11.10;6.85;;;7.50;99.90;;;;;;5055576;28;20031;-83
2023/11/18 05:49:29;;;;;;;11.02;6.50;;;7.50;99.90;;;;;;5056143;28;20103;-84
2023/11/18 05:51:56;;;;;;;15.52;7.15;;;7.50;99.90;;;;;;5055645;28;20127;-83
2023/11/18 05:54:21;;;;;;;12.68;6.60;;;7.50;99.90;;;;;;5073662;28;20027;-83
2023/11/18 05:56:47;;;;;;;13.15;6.55;;;7.60;99.90;;;;;;5056407;28;20028;-83
2023/11/18 05:59:13;;;;;;;12.43;6.70;;;7.60;99.90;;;;;;5074609;28;20032;-83
2023/11/18 06:01:40;;;;;;;13.10;6.50;;;7.50;99.90;;;;;;5055887;28;20054;-84
2023/11/18 06:04:08;;;;;;;11.40;6.10;;;7.60;99.90;;;;;;5055460;28;20482;-84
2023/11/18 06:06:34;;;;;;;12.45;6.13;;;7.50;99.90;;;;;;5055979;28;20074;-84
2023/11/18 06:09:05;;;;;;;11.82;6.18;;;7.50;99.90;;;;;;5061708;28;20029;-83
2023/11/18 06:11:34;;;;;;;13.93;6.70;;;7.50;99.90;;;;;;5066011;28;20368;-84
2023/11/18 06:14:01;;;;;;;13.95;6.85;;;7.60;99.90;;;;;;5055353;28;20154;-83
2023/11/18 06:16:27;;;;;;;14.50;6.63;;;7.60;99.90;;;;;;5073624;28;20031;-84
2023/11/18 06:18:57;;;;;;;10.35;6.05;;;7.60;99.90;;;;;;5073609;28;20052;-83
2023/11/18 06:21:26;;;;;;;11.20;5.60;;;7.60;99.90;;;;;;5073699;28;20021;-84
2023/11/18 06:23:54;;;;;;;12.75;6.47;;;7.60;99.90;;;;;;5073541;28;20063;-83
2023/11/18 06:26:20;;;;;;;13.95;6.13;;;7.50;99.90;;;;;;5055723;28;20128;-84
2023/11/18 06:28:49;;;;;;;10.27;5.40;;;7.50;99.90;;;;;;5055949;28;20049;-85
2023/11/18 06:31:14;;;;;;;12.43;6.10;;;7.50;99.90;;;;;;5076216;28;20032;-83
2023/11/18 06:33:42;;;;;;;11.93;5.35;;;7.50;99.90;;;;;;5076499;28;20362;-83
2023/11/18 06:36:14;;;;;;;10.93;6.03;;;7.50;99.90;;;;;;5059179;28;20090;-83
2023/11/18 06:38:44;;;;;;;9.27;5.38;;;7.50;99.90;;;;;;5059708;28;20082;-84
2023/11/18 06:41:12;;;;;;;11.30;5.55;;;7.40;99.90;;;;;;5058723;28;20128;-84
2023/11/18 06:46:29;;;;;;;9.15;5.15;;;7.40;99.90;;;;;;5076682;28;20097;-83
2023/11/18 06:48:55;;;;;;;10.15;5.95;;;7.50;99.90;;;;;;5076210;28;20078;-82
2023/11/18 06:51:24;;;;;;;12.73;7.07;;;7.40;99.90;;;;;;5059532;28;20047;-83
2023/11/18 06:53:59;;;;;;;10.10;5.88;;;7.40;99.90;;;;;;5059045;28;20035;-83
2023/11/18 06:56:28;;;;;;;8.95;5.00;;;7.50;99.90;;;;;;5059007;28;20123;-83
2023/11/18 06:58:54;;;;;;;8.85;5.38;;;7.50;99.90;;;;;;5058834;28;20089;-83
2023/11/18 07:01:20;;;;;;;11.07;5.22;;;7.40;99.90;;;;;;5058913;28;20075;-83
2023/11/18 07:03:48;;;;;;;8.63;5.07;;;7.50;99.90;;;;;;5058886;28;20477;-84
2023/11/18 07:06:21;;;;;;;11.10;6.30;;;7.50;99.90;;;;;;5058286;28;20028;-83
2023/11/18 07:08:51;;;;;;;8.45;5.25;;;7.40;99.90;;;;;;5059200;28;20043;-83
2023/11/18 07:11:17;;;;;;;10.38;5.82;;;7.40;99.90;;;;;;5057954;28;20033;-83
2023/11/18 07:13:44;;;;;;;9.68;5.68;;;7.40;99.90;;;;;;5076477;28;20025;-83
2023/11/18 07:16:09;;;;;;;10.13;5.13;;;7.40;99.90;;;;;;5075854;28;20496;-83
2023/11/18 07:18:36;;;;;;;10.27;5.57;;;7.40;99.90;;;;;;5058858;28;20024;-84
2023/11/18 07:21:04;;;;;;;10.55;5.95;;;7.40;99.90;;;;;;5057648;28;20060;-84
2023/11/18 07:23:33;;;;;;;10.80;6.50;;;7.40;99.90;;;;;;5058734;28;20492;-84
2023/11/18 07:25:59;;;;;;;10.07;5.80;;;7.30;99.90;;;;;;5057580;28;20028;-82
2023/11/18 07:28:25;;;;;;;13.65;6.70;;;7.40;99.90;;;;;;5075876;28;20095;-85
2023/11/18 07:30:53;;;;;;;13.95;7.00;;;7.40;99.90;;;;;;5058318;28;20029;-85
2023/11/18 07:33:20;;;;;;;12.35;5.90;;;7.40;99.90;;;;;;5057810;28;20024;-87
2023/11/18 07:35:47;;;;;;;11.05;6.10;;;7.40;99.90;;;;;;5075843;28;20155;-83
2023/11/18 07:38:14;;;;;;;11.30;5.97;;;7.40;99.90;;;;;;5057354;28;20028;-84
2023/11/18 07:40:42;;;;;;;10.02;5.93;;;7.40;99.90;;;;;;5057279;28;20075;-81
2023/11/18 07:43:21;;;;;;;10.30;5.70;;;7.40;99.90;;;;;;5057325;28;20031;-82
2023/11/18 07:45:49;;;;;;;12.15;5.63;;;7.50;99.90;;;;;;5057229;28;20025;-83
2023/11/18 07:48:17;;;;;;;12.18;5.53;;;7.50;99.90;;;;;;5057152;28;20063;-84
2023/11/18 07:50:45;;;;;;;12.40;5.88;;;7.60;99.90;;;;;;5057826;28;20039;-84
2023/11/18 07:53:11;;;;;;;10.57;6.05;;;7.60;99.90;;;;;;5057437;28;20032;-83
2023/11/18 07:55:40;;;;;;;9.27;5.53;;;7.60;99.90;;;;;;5057927;28;20053;-82
2023/11/18 07:58:13;;;;;;;13.48;5.40;;;7.60;99.90;;;;;;5057147;28;20025;-83
2023/11/18 08:00:42;;;;;;;13.93;5.75;;;7.70;99.90;;;;;;5057102;28;20119;-83
2023/11/18 08:03:13;;;;;;;9.18;5.25;;;7.70;99.90;;;;;;5057126;28;20092;-82
2023/11/18 08:05:40;;;;;;;13.13;5.40;;;7.70;99.90;;;;;;5057321;28;20078;-82
2023/11/18 08:08:10;;;;;;;10.15;5.28;;;7.70;99.90;;;;;;5056830;28;20461;-83
2023/11/18 08:10:39;;;;;;;11.48;4.68;;;7.70;99.90;;;;;;5075203;28;20024;-82
2023/11/18 08:13:08;;;;;;;10.95;5.25;;;7.80;99.90;;;;;;5074328;28;20469;-82
2023/11/18 08:15:47;;;;;;;7.50;4.32;;;7.80;99.90;;;;;;5057748;28;20035;-84
2023/11/18 08:18:13;;;;;;;11.23;4.35;;;7.70;99.90;;;;;;5056477;28;20033;-84
2023/11/18 08:20:39;;;;;;;10.30;4.75;;;7.80;99.90;;;;;;5057221;28;20033;-84
2023/11/18 08:23:05;;;;;;;8.27;4.43;;;7.90;99.90;;;;;;5056557;28;20446;-82
2023/11/18 08:25:33;;;;;;;9.60;4.90;;;7.80;99.90;;;;;;5057099;28;20028;-83
2023/11/18 08:28:00;;;;;;;11.10;4.60;;;7.90;99.90;;;;;;5074810;28;20025;-83
2023/11/18 08:30:26;;;;;;;6.97;4.30;;;7.80;99.90;;;;;;5051065;28;20052;-84
2023/11/18 08:32:52;;;;;;;6.07;4.40;;;7.80;99.90;;;;;;5057615;28;20082;-83
2023/11/18 08:35:18;;;;;;;7.78;4.20;;;7.80;99.90;;;;;;5056874;28;20102;-83
2023/11/18 08:37:44;;;;;;;6.97;4.05;;;7.80;99.90;;;;;;5056944;28;20469;-84
2023/11/18 08:40:14;;;;;;;8.43;4.93;;;7.90;99.90;;;;;;5056430;28;20024;-83
2023/11/18 08:42:49;;;;;;;6.40;3.90;;;7.90;99.90;;;;;;5056983;28;20123;-83
2023/11/18 08:45:16;;;;;;;9.75;4.47;;;8.00;99.90;;;;;;5056678;28;20025;-82
2023/11/18 08:47:49;;;;;;;8.50;4.45;;;8.00;99.90;;;;;;5056870;28;20056;-81
2023/11/18 08:50:17;;;;;;;7.57;4.43;;;8.10;99.90;;;;;;5056391;28;20028;-82
2023/11/18 08:52:46;;;;;;;9.00;4.88;;;8.10;99.90;;;;;;5056691;28;20032;-83
2023/11/18 08:55:25;;;;;;;9.57;5.57;;;8.10;99.90;;;;;;5055846;28;20091;-82
2023/11/18 08:58:00;;;;;;;9.73;5.45;;;8.20;99.90;;;;;;5056758;28;20025;-84
2023/11/18 09:03:52;;;;;;;8.32;4.95;;;8.30;99.90;;;;;;5073814;28;20060;-85
2023/11/18 09:06:27;;;;;;;11.05;5.22;;;8.40;99.90;;;;;;5073062;28;20436;-86
2023/11/18 09:08:54;;;;;;;10.65;4.57;;;8.50;99.90;;;;;;5056630;28;20123;-85
2023/11/18 09:11:22;;;;;;;7.32;4.90;;;8.40;99.90;;;;;;5056118;28;20496;-86
2023/11/18 09:13:53;;;;;;;9.88;4.63;;;8.40;99.90;;;;;;5056427;28;20052;-85
2023/11/18 09:16:25;;;;;;;7.93;4.68;;;8.50;99.90;;;;;;5056114;28;20028;-86
2023/11/18 09:18:51;;;;;;;7.28;4.80;;;8.50;99.90;;;;;;5074036;28;20124;-85
2023/11/18 09:21:24;;;;;;;7.35;4.57;;;8.50;99.90;;;;;;5056107;28;20040;-85
2023/11/18 09:23:50;;;;;;;7.55;4.40;;;8.60;99.90;;;;;;5056513;28;20028;-84
2023/11/18 09:26:16;;;;;;;9.32;4.80;;;8.70;99.90;;;;;;5047173;28;20055;-84
2023/11/18 09:28:44;;;;;;;10.70;5.32;;;8.70;99.90;;;;;;5044702;28;20029;-84
2023/11/18 09:31:12;;;;;;;10.35;4.55;;;8.70;99.90;;;;;;5046866;28;20031;-84
2023/11/18 09:33:44;;;;;;;8.48;4.60;;;8.60;99.90;;;;;;5046860;28;20044;-84
2023/11/18 09:36:12;;;;;;;6.60;4.45;;;8.70;99.90;;;;;;5046324;28;20481;-83
2023/11/18 09:38:42;;;;;;;6.35;4.20;;;8.70;99.90;;;;;;5046723;28;20136;-85
2023/11/18 09:41:12;;;;;;;8.63;4.32;;;8.80;99.90;;;;;;5045264;28;20433;-84
2023/11/18 09:43:45;;;;;;;6.32;3.80;;;8.80;99.90;;;;;;5045023;28;20115;-84
2023/11/18 09:46:32;;;;;;;5.60;3.75;;;8.80;99.90;;;;;;5064525;28;20100;-84
2023/11/18 09:49:33;;;;;;;5.95;3.63;;;8.90;99.90;;;;;;5047013;28;20027;-83
2023/11/18 09:52:02;;;;;;;6.03;3.65;;;8.90;99.90;;;;;;5044342;28;20493;-83
2023/11/18 09:54:33;;;;;;;6.07;3.63;;;8.90;99.90;;;;;;5045743;28;20023;-84
2023/11/18 09:57:13;;;;;;;5.80;3.40;;;8.90;99.90;;;;;;5044476;28;20021;-85
2023/11/18 09:59:58;;;;;;;6.25;3.47;;;9.00;99.90;;;;;;5044408;28;20087;-85
2023/11/18 10:02:24;;;;;;;7.53;3.50;;;8.90;99.90;;;;;;5046094;28;20040;-85
2023/11/18 10:04:57;;;;;;;5.82;3.30;;;9.00;99.90;;;;;;5045504;28;20025;-85
2023/11/18 10:07:26;;;;;;;6.88;3.17;;;9.10;99.90;;;;;;5052484;28;20141;-85
2023/11/18 10:09:57;;;;;;;5.47;2.85;;;9.10;99.90;;;;;;5051917;28;20538;-85
2023/11/18 10:12:23;;;;;;;6.95;3.63;;;9.20;99.90;;;;;;5050656;28;20059;-83
2023/11/18 10:14:52;;;;;;;8.57;3.38;;;9.20;99.90;;;;;;5047323;28;20021;-84
2023/11/18 10:17:21;;;;;;;6.88;3.72;;;9.30;99.90;;;;;;5048968;28;20064;-84
2023/11/18 10:19:55;;;;;;;6.47;3.35;;;9.20;99.90;;;;;;5049870;28;20020;-84
2023/11/18 10:22:32;;;;;;;7.97;3.38;;;9.20;99.90;;;;;;5050441;28;20024;-90
2023/11/18 10:25:00;;;;;;;4.60;2.97;;;9.20;99.90;;;;;;5052629;28;20032;-85
2023/11/18 10:27:30;;;;;;;6.28;2.20;;;9.30;99.90;;;;;;5058801;28;20034;-85
2023/11/18 10:30:18;;;;;;;4.82;2.42;;;9.30;99.90;;;;;;5052278;28;20020;-84
2023/11/18 10:32:56;;;;;;;6.90;2.70;;;9.20;99.90;;;;;;5046585;28;20499;-87
2023/11/18 10:35:21;;;;;;;5.97;2.40;;;9.20;99.90;;;;;;5040661;28;20543;-85
2023/11/18 10:37:49;;;;;;;5.53;2.30;;;9.20;99.90;;;;;;5057351;28;20033;-85
2023/11/18 10:40:15;;;;;;;3.50;2.10;;;9.30;99.90;;;;;;5075490;28;20020;-83
2023/11/18 10:42:42;;;;;;;4.82;1.80;;;9.30;99.90;;;;;;5049699;28;20549;-88
2023/11/18 10:45:12;;;;;;;3.38;1.42;;;9.30;99.90;;;;;;5055453;28;20025;-87
2023/11/18 10:47:42;;;;;;;1.63;1.10;;;9.30;99.90;;;;;;5055733;28;20025;-87
2023/11/18 10:50:12;;;;;;;2.20;1.20;;;9.30;99.90;;;;;;5069720;28;20021;-86
2023/11/18 10:52:40;;;;;;;3.40;1.35;;;9.30;99.90;;;;;;5047545;28;20035;-88
2023/11/18 10:55:12;;;;;;;2.10;1.27;;;9.30;99.90;;;;;;5058230;28;20024;-88
2023/11/18 10:57:38;;;;;;;7.10;1.40;;;9.30;99.90;;;;;;5059142;28;20029;-89
2023/11/18 11:00:14;;;;;;;4.70;1.38;;;9.20;99.90;;;;;;5052673;28;20489;-88
2023/11/18 11:02:41;;;;;;;3.55;1.50;;;9.20;99.90;;;;;;5055779;28;20108;-87
2023/11/18 11:05:08;;;;;;;2.38;1.40;;;9.30;99.90;;;;;;5069022;28;20031;-86
2023/11/18 11:07:35;;;;;;;3.35;1.50;;;9.30;99.90;;;;;;5040399;28;20029;-87
2023/11/18 11:10:04;;;;;;;2.50;1.60;;;9.20;99.90;;;;;;5042717;28;20082;-87
2023/11/18 11:12:39;;;;;;;6.35;2.22;;;9.30;99.90;;;;;;5066489;28;20074;-89
2023/11/18 11:15:21;;;;;;;3.88;1.98;;;9.20;99.90;;;;;;5051510;28;20028;-87
2023/11/18 11:17:55;;;;;;;4.35;1.90;;;9.30;99.90;;;;;;5052955;28;20086;-87
2023/11/18 11:20:32;;;;;;;3.50;1.83;;;9.30;99.90;;;;;;5049705;28;20033;-86
2023/11/18 11:23:19;;;;;;;2.88;1.67;;;9.30;99.90;;;;;;5049943;28;20142;-88
2023/11/18 11:25:53;;;;;;;5.70;1.73;;;9.20;99.90;;;;;;5056154;28;20032;-84
2023/11/18 11:28:23;;;;;;;2.90;1.58;;;9.20;99.90;;;;;;5049165;28;20501;-84
2023/11/18 11:31:06;;;;;;;6.40;1.92;;;9.20;99.90;;;;;;5048143;28;20039;-83
2023/11/18 11:33:51;;;;;;;3.78;2.13;;;9.30;99.90;;;;;;5040545;28;20152;-88
2023/11/18 11:36:24;;;;;;;4.95;1.77;;;9.20;99.90;;;;;;5067861;28;20116;-87
2023/11/18 11:38:55;;;;;;;3.15;1.73;;;9.30;99.90;;;;;;5049062;28;20036;-88
2023/11/18 11:41:26;;;;;;;3.90;1.35;;;9.30;99.90;;;;;;5041375;28;20032;-91
2023/11/18 11:43:58;;;;;;;3.10;1.80;;;9.20;99.90;;;;;;5042297;28;20056;-88
2023/11/18 11:46:33;;;;;;;5.20;1.92;;;9.30;99.90;;;;;;5049337;28;20052;-88
2023/11/18 11:49:12;;;;;;;4.15;1.85;;;9.30;99.90;;;;;;5050066;28;20032;-91
2023/11/18 11:51:49;;;;;;;4.13;2.10;;;9.30;99.90;;;;;;5098255;22;20051;-92
2023/11/18 11:54:23;;;;;;;4.35;1.60;;;9.30;99.90;;;;;;5035035;28;20044;-91
2023/11/18 11:56:59;;;;;;;3.70;1.90;;;9.20;99.90;;;;;;5006924;28;20022;-93
2023/11/18 12:07:09;;;;;;;3.42;1.52;;;9.30;99.90;;;;;;5327556;22;20064;-96
2023/11/18 12:09:38;;;;;;;3.58;1.85;;;9.20;99.90;;;;;;5025562;28;20022;-96
2023/11/18 12:12:19;;;;;;;5.60;1.38;;;9.30;99.90;;;;;;5235856;22;20080;-96
2023/11/18 12:15:00;;;;;;;2.25;1.40;;;9.20;99.90;;;;;;5033463;28;20581;-96
2023/11/18 12:17:31;;;;;;;4.05;1.50;;;9.20;99.90;;;;;;5029569;28;20378;-88
2023/11/18 12:20:05;;;;;;;2.65;1.00;;;9.30;99.90;;;;;;5015023;28;20539;-94
2023/11/18 12:23:05;;;;;;;4.72;2.30;;;9.30;99.90;;;;;;5007741;28;20481;-95
2023/11/18 12:25:32;;;;;;;4.03;1.65;;;9.30;99.90;;;;;;5019849;28;20083;-92
2023/11/18 12:27:58;;;;;;;4.63;1.60;;;9.20;99.90;;;;;;5019871;28;20017;-94
2023/11/18 12:30:29;;;;;;;3.50;1.50;;;9.20;99.90;;;;;;5012106;28;20467;-92
2023/11/18 12:33:05;;;;;;;3.65;1.60;;;9.20;99.90;;;;;;5006822;28;20025;-91
2023/11/18 12:35:46;;;;;;;4.07;1.50;;;9.20;99.90;;;;;;5016608;28;20056;-90
2023/11/18 12:38:46;;;;;;;5.03;1.90;;;9.30;99.90;;;;;;5027710;28;20026;-91
2023/11/18 12:41:37;;;;;;;3.90;1.70;;;9.30;99.90;;;;;;5011169;28;20140;-85
2023/11/18 12:44:21;;;;;;;5.53;1.63;;;9.40;99.90;;;;;;5011970;28;20104;-86
2023/11/18 12:47:03;;;;;;;4.05;1.42;;;9.40;99.90;;;;;;5021863;28;20037;-87
2023/11/18 12:49:29;;;;;;;5.35;1.63;;;9.30;99.90;;;;;;5012422;28;20330;-86
2023/11/18 12:51:56;;;;;;;2.45;1.48;;;9.30;99.90;;;;;;5000868;28;20530;-87
2023/11/18 12:54:27;;;;;;;4.32;2.13;;;9.30;99.90;;;;;;5010254;28;20070;-84
2023/11/18 12:56:55;;;;;;;3.95;1.67;;;9.40;99.90;;;;;;5008757;28;20037;-87
2023/11/18 12:59:21;;;;;;;2.10;1.63;;;9.40;99.90;;;;;;4999941;28;20057;-86
2023/11/18 13:01:56;;;;;;;4.72;2.00;;;9.40;99.90;;;;;;4998799;28;20130;-86
2023/11/18 13:04:24;;;;;;;2.47;1.70;;;9.40;99.90;;;;;;5008236;28;20064;-87
2023/11/18 13:06:54;;;;;;;3.95;1.50;;;9.40;99.90;;;;;;5025072;28;20475;-86
2023/11/18 13:09:31;;;;;;;3.63;2.03;;;9.50;99.90;;;;;;5018289;28;20256;-86
2023/11/18 13:11:58;;;;;;;4.10;1.80;;;9.40;99.90;;;;;;5000431;28;20148;-83
2023/11/18 13:14:26;;;;;;;4.10;1.80;;;9.40;99.90;;;;;;5008489;28;20049;-83
2023/11/18 13:16:56;;;;;;;2.55;1.70;;;9.50;99.90;;;;;;5008617;28;20029;-86